Terminal Aerodrome Forecast
Issued by NWS Wilmington, OH

Home | Current Version | Previous Version | Text Only | Print | Product List | Glossary On
Versions: 1 2 3 4 5 6 7 8 9 10 11 12 13 14 15 16 17 18 19 20 21 22 23 24 25 26 27
000
FTUS41 KILN 260524
TAFCVG
TAF
KCVG 260524Z 2606/2712 26006KT P6SM FEW025
      TEMPO 2608/2612 4SM BR
     FM261300 24007KT P6SM SCT250
     FM270000 17006KT P6SM BKN100
     FM270700 20006KT P6SM VCSH BKN040=

USA.gov is the U.S. government's official web portal to all federal, state and local government web resources and services.